Time;durP1;ratioP1;P1;durP2;ratioP2;P2;SDS_P1;SDS_P2;PMS_P1;PMS_P2;Temp;Humidity;BMP_temperature;BMP_pressure;BME280_temperature;BME280_humidity;BME280_pressure;Samples;Min_cycle;Max_cycle;Signal;HPM_P1;HPM_P2
2024/03/02 00:00:13;;;;;;;11.47;5.33;;;;;;;2.28;100.00;102664.78;5040838;28;20336;-66
2024/03/02 00:02:42;;;;;;;8.13;5.27;;;;;;;2.31;100.00;102667.28;5041643;28;20292;-66
2024/03/02 00:05:11;;;;;;;6.87;5.03;;;;;;;2.36;100.00;102667.97;5045805;28;20755;-65
2024/03/02 00:07:37;;;;;;;7.77;5.80;;;;;;;2.38;100.00;102671.38;5020079;28;20323;-67
2024/03/02 00:10:12;;;;;;;9.83;5.20;;;;;;;2.28;100.00;102646.38;5038678;28;20279;-66
2024/03/02 00:12:39;;;;;;;5.13;4.60;;;;;;;2.13;100.00;102622.44;5046520;28;20499;-66
2024/03/02 00:15:31;;;;;;;6.77;4.87;;;;;;;2.44;100.00;102665.88;5044964;28;20276;-65
2024/03/02 00:17:58;;;;;;;5.40;4.40;;;;;;;2.40;100.00;102673.03;5035001;28;20278;-64
2024/03/02 00:20:27;;;;;;;4.53;3.90;;;;;;;2.33;100.00;102654.94;5049030;28;20295;-66
2024/03/02 00:23:14;;;;;;;5.38;4.53;;;;;;;2.35;100.00;102663.63;5037941;28;20302;-65
2024/03/02 00:25:47;;;;;;;5.85;4.88;;;;;;;2.35;100.00;102668.88;5034293;28;20056;-65
2024/03/02 00:28:24;;;;;;;9.37;4.37;;;;;;;2.40;100.00;102666.91;5047464;28;20496;-65
2024/03/02 00:30:56;;;;;;;6.17;4.43;;;;;;;2.39;100.00;102670.47;5045224;28;20288;-66
2024/03/02 00:33:23;;;;;;;11.00;4.20;;;;;;;2.38;100.00;102668.75;5037822;28;20268;-66
2024/03/02 00:35:49;;;;;;;7.27;4.90;;;;;;;2.05;100.00;102618.41;5039175;28;20383;-68
2024/03/02 00:38:15;;;;;;;7.57;5.07;;;;;;;2.14;100.00;102639.91;5036876;28;20283;-62
2024/03/02 00:40:45;;;;;;;7.20;5.23;;;;;;;2.25;100.00;102664.91;5038241;28;20314;-66
2024/03/02 00:43:33;;;;;;;7.80;4.90;;;;;;;2.36;100.00;102671.44;5037233;28;20296;-66
2024/03/02 00:45:59;;;;;;;8.38;5.53;;;;;;;2.38;100.00;102677.50;5044222;28;20651;-64
2024/03/02 00:48:25;;;;;;;7.43;5.73;;;;;;;2.39;100.00;102673.94;5040393;28;20048;-65
2024/03/02 00:50:52;;;;;;;12.97;8.27;;;;;;;2.31;100.00;102662.00;5017790;28;20042;-66
2024/03/02 00:53:24;;;;;;;14.53;8.07;;;;;;;2.35;100.00;102671.50;5045784;28;20279;-63
2024/03/02 00:55:50;;;;;;;10.53;7.77;;;;;;;2.32;100.00;102671.66;5030133;28;20310;-67
2024/03/02 00:58:16;;;;;;;11.20;7.63;;;;;;;2.26;100.00;102663.97;5044653;28;20279;-66
2024/03/02 01:00:41;;;;;;;15.83;8.40;;;;;;;2.32;100.00;102661.13;5038164;28;20644;-66
2024/03/02 01:03:07;;;;;;;14.87;8.67;;;;;;;2.34;100.00;102662.78;5044118;28;20045;-66
2024/03/02 01:05:33;;;;;;;15.20;9.63;;;;;;;2.29;100.00;102653.34;5043687;28;20065;-67
2024/03/02 01:07:59;;;;;;;15.47;9.00;;;;;;;2.33;100.00;102668.94;5041361;28;20801;-65
2024/03/02 01:10:25;;;;;;;18.20;11.63;;;;;;;2.29;100.00;102671.75;5044570;28;20051;-66
2024/03/02 01:12:51;;;;;;;17.87;12.10;;;;;;;2.14;100.00;102671.47;5047555;28;20390;-66
2024/03/02 01:15:17;;;;;;;15.43;10.27;;;;;;;2.05;100.00;102671.84;5046605;28;20284;-66
2024/03/02 01:17:42;;;;;;;15.07;9.67;;;;;;;2.03;100.00;102664.94;5045643;28;20536;-65
2024/03/02 01:20:09;;;;;;;14.13;10.00;;;;;;;1.96;100.00;102645.03;5044256;28;20047;-65
2024/03/02 01:22:35;;;;;;;13.70;9.53;;;;;;;2.22;100.00;102670.28;5042586;28;20049;-66
2024/03/02 01:25:01;;;;;;;14.73;10.23;;;;;;;2.13;100.00;102648.72;5042802;28;20287;-64
2024/03/02 01:27:29;;;;;;;15.03;11.00;;;;;;;2.32;100.00;102666.38;5039269;28;20296;-66
2024/03/02 01:29:55;;;;;;;16.57;10.73;;;;;;;2.28;100.00;102662.16;5048367;28;20275;-66
2024/03/02 01:32:21;;;;;;;13.87;10.87;;;;;;;2.13;100.00;102648.72;5049227;28;20270;-65
2024/03/02 01:34:48;;;;;;;16.27;10.70;;;;;;;2.00;100.00;102622.97;5045804;28;20053;-68
2024/03/02 01:37:14;;;;;;;15.47;9.03;;;;;;;2.16;100.00;102643.34;5045189;28;20291;-65
2024/03/02 01:39:39;;;;;;;14.57;10.33;;;;;;;2.26;100.00;102653.47;5043808;28;20673;-65
2024/03/02 01:42:05;;;;;;;13.90;9.40;;;;;;;2.33;100.00;102666.31;5045938;28;20103;-65
2024/03/02 01:44:30;;;;;;;13.63;8.83;;;;;;;2.31;100.00;102657.59;5043770;28;20041;-67
2024/03/02 01:46:56;;;;;;;16.90;10.93;;;;;;;1.96;100.00;102605.63;5041200;28;20055;-68
2024/03/02 01:49:22;;;;;;;16.07;11.37;;;;;;;2.24;100.00;102656.16;5045875;28;20029;-66
2024/03/02 01:51:48;;;;;;;13.03;9.73;;;;;;;2.14;100.00;102644.31;5040856;28;20037;-66
2024/03/02 01:54:13;;;;;;;11.83;8.20;;;;;;;2.14;100.00;102645.19;5043957;28;20812;-64
2024/03/02 01:56:39;;;;;;;12.07;7.70;;;;;;;2.16;100.00;102645.97;5044069;28;20492;-65
2024/03/02 01:59:05;;;;;;;11.37;6.93;;;;;;;2.12;100.00;102654.91;5040823;28;20041;-65
2024/03/02 02:01:31;;;;;;;9.50;7.07;;;;;;;1.95;100.00;102627.56;5041211;28;20056;-66
2024/03/02 02:03:56;;;;;;;10.50;7.23;;;;;;;1.87;100.00;102622.63;5039724;28;20033;-65
2024/03/02 02:06:22;;;;;;;11.33;7.43;;;;;;;1.94;100.00;102634.59;5043872;28;20089;-65
2024/03/02 02:08:48;;;;;;;12.37;6.90;;;;;;;1.93;100.00;102634.66;5044102;28;20037;-64
2024/03/02 02:11:17;;;;;;;8.80;6.53;;;;;;;1.96;100.00;102638.03;5039731;28;20155;-65
2024/03/02 02:13:43;;;;;;;9.43;7.07;;;;;;;1.98;100.00;102638.81;5028945;28;20045;-64
2024/03/02 02:16:08;;;;;;;10.87;6.87;;;;;;;1.80;100.00;102615.91;5042213;28;20291;-65
2024/03/02 02:18:38;;;;;;;8.60;6.47;;;;;;;2.04;100.00;102662.25;5043441;28;20049;-68
2024/03/02 02:21:03;;;;;;;7.43;5.72;;;;;;;2.08;100.00;102666.47;5046678;28;20735;-65
2024/03/02 02:23:29;;;;;;;7.43;5.87;;;;;;;1.98;100.00;102636.19;5048063;28;20044;-65
2024/03/02 02:26:02;;;;;;;8.57;7.03;;;;;;;2.14;100.00;102650.44;5039753;28;20155;-66
2024/03/02 02:28:28;;;;;;;12.90;6.10;;;;;;;2.24;100.00;102653.53;5020892;28;20065;-68
2024/03/02 02:30:56;;;;;;;8.97;6.60;;;;;;;2.34;100.00;102664.53;5045419;28;20768;-65
2024/03/02 02:33:22;;;;;;;9.88;8.43;;;;;;;2.34;100.00;102667.19;5045463;28;20064;-67
2024/03/02 02:35:47;;;;;;;11.83;8.13;;;;;;;2.34;100.00;102669.81;5051917;28;20412;-68
2024/03/02 02:38:13;;;;;;;12.23;8.27;;;;;;;2.35;100.00;102672.38;5035812;28;20037;-68
2024/03/02 02:40:38;;;;;;;17.17;9.57;;;;;;;2.39;100.00;102673.09;5041484;28;20052;-68
2024/03/02 02:43:04;;;;;;;12.73;8.17;;;;;;;2.40;100.00;102669.53;5045668;28;20049;-66
2024/03/02 02:45:30;;;;;;;12.30;8.27;;;;;;;2.12;100.00;102617.25;5053647;28;20033;-69
2024/03/02 02:47:56;;;;;;;11.03;8.80;;;;;;;2.34;100.00;102641.72;5035709;28;20041;-66
2024/03/02 02:50:21;;;;;;;9.00;7.63;;;;;;;2.47;100.00;102663.09;5044454;28;20348;-66
2024/03/02 02:52:47;;;;;;;10.40;7.77;;;;;;;2.53;100.00;102676.00;5039133;28;20530;-66
2024/03/02 02:55:13;;;;;;;12.87;9.10;;;;;;;2.35;100.00;102647.84;5048415;28;20044;-67
2024/03/02 02:57:41;;;;;;;12.93;8.40;;;;;;;2.28;100.00;102639.34;5045654;28;20049;-68
2024/03/02 03:00:15;;;;;;;12.35;9.00;;;;;;;2.45;100.00;102680.72;5044223;28;20291;-65
2024/03/02 03:02:42;;;;;;;13.73;9.13;;;;;;;2.28;100.00;102652.47;5044929;28;20067;-65
2024/03/02 03:05:12;;;;;;;12.73;9.60;;;;;;;2.36;100.00;102660.94;5041521;28;20268;-66
2024/03/02 03:07:42;;;;;;;11.70;8.97;;;;;;;2.41;100.00;102669.47;5039865;28;20354;-64
2024/03/02 03:10:08;;;;;;;15.90;8.53;;;;;;;2.44;100.00;102679.00;5026638;28;20783;-66
2024/03/02 03:12:34;;;;;;;13.73;10.27;;;;;;;2.36;100.00;102653.03;5046445;28;20298;-64
2024/03/02 03:15:01;;;;;;;13.93;10.13;;;;;;;2.33;100.00;102658.44;5038524;28;20287;-65
2024/03/02 03:17:27;;;;;;;15.37;11.03;;;;;;;2.35;100.00;102668.88;5043637;28;20306;-65
2024/03/02 03:19:53;;;;;;;13.40;10.20;;;;;;;2.31;100.00;102667.28;5036674;28;20334;-66
2024/03/02 03:22:19;;;;;;;12.77;9.60;;;;;;;2.31;100.00;102665.50;5036546;28;20299;-65
2024/03/02 03:24:44;;;;;;;13.97;8.40;;;;;;;2.20;100.00;102656.34;5043933;28;20029;-66
2024/03/02 03:27:12;;;;;;;10.67;8.33;;;;;;;2.27;100.00;102663.06;5037917;28;20057;-64
2024/03/02 03:29:38;;;;;;;9.30;7.77;;;;;;;2.10;100.00;102648.84;5041245;28;20404;-68
2024/03/02 03:32:04;;;;;;;14.50;8.97;;;;;;;2.18;100.00;102656.41;5039628;28;20651;-65
2024/03/02 03:34:33;;;;;;;12.83;8.20;;;;;;;2.22;100.00;102654.50;5045254;28;20393;-66
2024/03/02 03:36:58;;;;;;;11.25;8.50;;;;;;;1.83;100.00;102607.91;5039009;28;20287;-65
2024/03/02 03:39:24;;;;;;;14.33;9.07;;;;;;;2.02;100.00;102642.16;5036773;28;20033;-65
2024/03/02 03:41:49;;;;;;;13.37;8.63;;;;;;;1.83;100.00;102618.41;5043073;28;20041;-66
2024/03/02 03:44:15;;;;;;;10.70;7.53;;;;;;;2.00;100.00;102644.00;5045692;28;20051;-65
2024/03/02 03:46:41;;;;;;;12.40;8.33;;;;;;;2.04;100.00;102653.50;5040135;28;20037;-64
2024/03/02 03:49:07;;;;;;;10.97;7.77;;;;;;;2.10;100.00;102659.34;5047460;28;20087;-65
2024/03/02 03:51:33;;;;;;;18.97;8.60;;;;;;;1.91;100.00;102621.59;5039358;28;20135;-65
2024/03/02 03:53:59;;;;;;;10.80;7.50;;;;;;;2.14;100.00;102650.44;5041107;28;20295;-66
2024/03/02 03:56:25;;;;;;;11.90;7.97;;;;;;;2.08;100.00;102639.31;5041387;28;20267;-65
2024/03/02 03:58:50;;;;;;;12.67;7.10;;;;;;;2.20;100.00;102664.25;5042963;28;20072;-65
2024/03/02 04:01:16;;;;;;;10.60;7.10;;;;;;;2.25;100.00;102663.13;5045082;28;20485;-66
2024/03/02 04:03:41;;;;;;;12.80;8.50;;;;;;;2.15;100.00;102641.63;5050830;28;20124;-65
2024/03/02 04:06:07;;;;;;;11.50;8.07;;;;;;;2.20;100.00;102641.44;5045543;28;20086;-66
2024/03/02 04:08:32;;;;;;;9.33;7.20;;;;;;;2.20;100.00;102635.31;5044443;28;20045;-64
2024/03/02 04:10:58;;;;;;;11.90;8.67;;;;;;;2.28;100.00;102651.63;5028730;28;20069;-64
2024/03/02 04:13:24;;;;;;;14.90;8.17;;;;;;;2.23;100.00;102622.03;5035660;28;20040;-65
2024/03/02 04:15:49;;;;;;;14.00;8.50;;;;;;;2.46;100.00;102645.63;5041196;28;20409;-65
2024/03/02 04:18:15;;;;;;;10.80;7.80;;;;;;;2.49;100.00;102650.75;5034033;28;20044;-63
2024/03/02 04:20:40;;;;;;;11.13;9.63;;;;;;;2.46;100.00;102637.72;5043435;28;20075;-66
2024/03/02 04:23:06;;;;;;;14.70;10.27;;;;;;;2.40;100.00;102627.47;5044807;28;20080;-66
2024/03/02 04:25:31;;;;;;;13.83;8.63;;;;;;;2.55;100.00;102642.59;5036621;28;20072;-66
2024/03/02 04:27:58;;;;;;;12.17;7.77;;;;;;;2.43;100.00;102614.19;5028358;28;20063;-68
2024/03/02 04:30:25;;;;;;;14.50;9.20;;;;;;;2.63;100.00;102643.13;5048610;28;20083;-64
2024/03/02 04:32:50;;;;;;;10.93;7.57;;;;;;;2.54;100.00;102627.72;5040048;28;20276;-67
2024/03/02 04:35:16;;;;;;;7.97;7.00;;;;;;;2.71;100.00;102659.44;5047430;28;20291;-65
2024/03/02 04:37:42;;;;;;;8.67;7.13;;;;;;;2.63;100.00;102648.41;5051833;28;20041;-64
2024/03/02 04:40:08;;;;;;;10.03;7.10;;;;;;;2.57;100.00;102642.53;5049659;28;20516;-65
2024/03/02 04:42:34;;;;;;;9.60;7.07;;;;;;;2.27;100.00;102592.06;5047457;28;20045;-64
2024/03/02 04:45:01;;;;;;;9.90;7.67;;;;;;;1.99;100.00;102539.81;5046840;28;20326;-67
2024/03/02 04:47:26;;;;;;;9.77;6.73;;;;;;;2.60;100.00;102647.66;5056902;28;20287;-67
2024/03/02 04:49:52;;;;;;;11.70;7.27;;;;;;;2.56;100.00;102646.06;5060727;28;20658;-64
2024/03/02 04:52:18;;;;;;;11.30;7.43;;;;;;;2.46;100.00;102643.84;5049939;28;20044;-66
2024/03/02 04:57:28;;;;;;;11.03;7.30;;;;;;;2.44;100.00;102647.47;5047379;28;20045;-65
2024/03/02 04:59:54;;;;;;;10.33;7.07;;;;;;;2.33;100.00;102623.41;5057172;28;20266;-66
2024/03/02 05:02:20;;;;;;;9.90;7.00;;;;;;;2.59;100.00;102656.47;5054558;28;20028;-69
2024/03/02 05:04:45;;;;;;;8.00;6.70;;;;;;;2.40;100.00;102616.94;5048796;28;20037;-66
2024/03/02 05:07:11;;;;;;;8.00;6.23;;;;;;;2.63;100.00;102648.41;5046180;28;20044;-65
2024/03/02 05:09:37;;;;;;;9.97;6.23;;;;;;;2.65;100.00;102650.97;5054995;28;20147;-66
2024/03/02 05:14:46;;;;;;;10.03;6.50;;;;;;;2.74;100.00;102647.94;5054665;28;20045;-65
2024/03/02 05:17:12;;;;;;;11.47;5.87;;;;;;;2.81;100.00;102662.53;5038006;28;20288;-65
2024/03/02 05:19:38;;;;;;;9.47;6.53;;;;;;;2.67;100.00;102642.09;5037292;28;20029;-67
2024/03/02 05:22:04;;;;;;;8.33;5.43;;;;;;;2.77;100.00;102653.06;5043861;28;20068;-71
2024/03/02 05:24:29;;;;;;;7.80;5.47;;;;;;;2.66;100.00;102637.75;5033510;28;20628;-72
2024/03/02 05:26:55;;;;;;;8.77;5.43;;;;;;;2.60;100.00;102626.59;5022781;28;20050;-72
2024/03/02 05:29:21;;;;;;;5.80;4.73;;;;;;;2.78;100.00;102655.63;5032784;28;20072;-68
2024/03/02 05:31:47;;;;;;;5.47;4.97;;;;;;;2.78;100.00;102663.50;5034308;28;20413;-72
2024/03/02 05:34:13;;;;;;;6.57;5.33;;;;;;;2.75;100.00;102662.78;5047350;28;20040;-69
2024/03/02 05:36:38;;;;;;;10.57;5.20;;;;;;;2.60;100.00;102624.84;5044618;28;20350;-68
2024/03/02 05:39:09;;;;;;;7.13;4.57;;;;;;;2.62;100.00;102641.44;5029105;28;20041;-69
2024/03/02 05:41:35;;;;;;;6.00;5.40;;;;;;;2.64;100.00;102660.63;5041025;28;20102;-66
2024/03/02 05:44:01;;;;;;;5.57;4.80;;;;;;;2.28;100.00;102599.91;5045655;28;20287;-66
2024/03/02 05:46:27;;;;;;;5.23;4.47;;;;;;;2.67;100.00;102671.03;5044419;28;20296;-67
2024/03/02 05:48:53;;;;;;;5.33;4.80;;;;;;;2.68;100.00;102661.34;5044670;28;20033;-68
2024/03/02 05:51:18;;;;;;;5.30;4.80;;;;;;;2.14;100.00;102589.97;5038101;28;20288;-67
2024/03/02 05:53:44;;;;;;;5.73;5.07;;;;;;;2.73;100.00;102660.22;5036977;28;20038;-69
2024/03/02 05:56:10;;;;;;;6.40;5.40;;;;;;;2.78;100.00;102663.50;5033468;28;20063;-68
2024/03/02 05:59:20;;;;;;;6.10;5.47;;;;;;;2.75;100.00;102668.91;5035596;28;20572;-67
2024/03/02 06:01:27;;;;;;;7.17;5.77;;;;;;;2.64;100.00;102650.09;5022957;28;20436;-68
2024/03/02 06:03:55;;;;;;;6.17;5.17;;;;;;;2.29;100.00;102606.00;5032363;28;20693;-68
2024/03/02 06:06:21;;;;;;;5.70;4.97;;;;;;;2.26;100.00;102614.03;5040788;28;20326;-66
2024/03/02 06:08:46;;;;;;;5.97;5.37;;;;;;;2.60;100.00;102674.84;5052246;28;20350;-66
2024/03/02 06:11:12;;;;;;;6.90;5.37;;;;;;;2.53;100.00;102654.09;5039215;28;20033;-70
2024/03/02 06:13:37;;;;;;;5.23;4.70;;;;;;;2.43;100.00;102637.84;5034857;28;20030;-66
2024/03/02 06:16:03;;;;;;;7.50;5.30;;;;;;;2.31;100.00;102609.44;5037197;28;20048;-68
2024/03/02 06:18:28;;;;;;;8.80;6.77;;;;;;;2.48;100.00;102651.66;5044169;28;20043;-69
2024/03/02 06:20:54;;;;;;;6.57;5.53;;;;;;;2.70;100.00;102670.03;5045890;28;20034;-69
2024/03/02 06:23:20;;;;;;;6.30;5.23;;;;;;;2.71;100.00;102672.59;5038519;28;20607;-67
2024/03/02 06:25:46;;;;;;;9.30;5.33;;;;;;;2.54;100.00;102635.63;5039633;28;20041;-66
2024/03/02 06:28:12;;;;;;;5.27;4.77;;;;;;;2.72;100.00;102665.56;5042569;28;20072;-66
2024/03/02 06:30:37;;;;;;;4.40;4.00;;;;;;;2.70;100.00;102670.88;5042150;28;20318;-66
2024/03/02 06:33:03;;;;;;;4.73;3.90;;;;;;;2.62;100.00;102659.84;5046101;28;20033;-71
2024/03/02 06:35:29;;;;;;;4.63;4.03;;;;;;;2.58;100.00;102660.88;5036328;28;20052;-66
2024/03/02 06:37:55;;;;;;;5.37;4.10;;;;;;;2.78;100.00;102671.41;5041058;28;20276;-68
2024/03/02 06:40:21;;;;;;;7.47;5.73;;;;;;;2.68;100.00;102656.94;5042483;28;20145;-70
2024/03/02 06:42:47;;;;;;;7.30;6.20;;;;;;;2.74;100.00;102667.19;5040630;28;20033;-69
2024/03/02 06:45:12;;;;;;;17.07;11.17;;;;;;;2.82;100.00;102677.38;5045587;28;20284;-68
2024/03/02 06:47:38;;;;;;;9.73;7.03;;;;;;;2.83;100.00;102671.19;5038286;28;20041;-70
2024/03/02 06:50:04;;;;;;;15.37;9.23;;;;;;;2.80;100.00;102660.81;5023926;28;20521;-68
2024/03/02 06:52:30;;;;;;;10.83;7.07;;;;;;;2.91;100.00;102684.06;5044612;28;20513;-69
2024/03/02 06:54:55;;;;;;;8.17;5.77;;;;;;;2.89;100.00;102680.59;5047986;28;20047;-70
2024/03/02 06:57:21;;;;;;;10.60;5.47;;;;;;;2.79;100.00;102670.47;5043770;28;20071;-69
2024/03/02 06:59:48;;;;;;;8.90;5.70;;;;;;;2.84;100.00;102680.81;5032572;28;20440;-68
2024/03/02 07:02:14;;;;;;;6.83;5.70;;;;;;;2.78;100.00;102666.16;5044993;28;20032;-67
2024/03/02 07:04:39;;;;;;;22.57;12.57;;;;;;;2.68;100.00;102656.94;5040153;28;20272;-66
2024/03/02 07:07:05;;;;;;;27.13;16.40;;;;;;;2.77;100.00;102685.47;5041400;28;20037;-71
2024/03/02 07:09:30;;;;;;;16.10;9.37;;;;;;;2.44;100.00;102626.41;5046790;28;20037;-65
2024/03/02 07:11:56;;;;;;;13.27;8.30;;;;;;;2.67;100.00;102660.50;5044209;28;20034;-67
2024/03/02 07:14:37;;;;;;;14.73;8.37;;;;;;;2.74;100.00;102667.19;5045013;28;20044;-67
2024/03/02 07:17:03;;;;;;;9.77;5.67;;;;;;;2.75;100.00;102684.69;5045109;28;20048;-68
2024/03/02 07:19:28;;;;;;;8.27;6.20;;;;;;;2.66;100.00;102655.31;5042055;28;20280;-70
2024/03/02 07:21:54;;;;;;;8.67;6.73;;;;;;;2.72;100.00;102673.44;5050214;28;20493;-68
2024/03/02 07:24:19;;;;;;;7.73;5.80;;;;;;;2.70;100.00;102659.50;5040789;28;20088;-68
2024/03/02 07:26:47;;;;;;;13.07;8.83;;;;;;;2.67;100.00;102649.97;5046887;28;20053;-70
2024/03/02 07:29:13;;;;;;;11.53;8.87;;;;;;;2.72;100.00;102648.00;5027944;28;20416;-65
2024/03/02 07:31:38;;;;;;;11.97;8.60;;;;;;;2.96;100.00;102682.94;5049491;28;20294;-64
2024/03/02 07:34:04;;;;;;;13.37;8.77;;;;;;;2.84;100.00;102657.13;5035735;28;20052;-70
2024/03/02 07:36:29;;;;;;;8.00;6.03;;;;;;;2.90;100.00;102663.94;5041290;28;20071;-68
2024/03/02 07:38:55;;;;;;;7.00;5.83;;;;;;;2.91;100.00;102670.91;5037604;28;20429;-67
2024/03/02 07:41:20;;;;;;;7.60;6.77;;;;;;;2.91;100.00;102663.00;5045466;28;20034;-68
2024/03/02 07:43:46;;;;;;;7.07;6.30;;;;;;;2.92;100.00;102675.25;5041498;28;20085;-68
2024/03/02 07:46:12;;;;;;;7.53;5.93;;;;;;;3.00;100.00;102687.13;5037396;28;20037;-68
2024/03/02 07:48:38;;;;;;;8.43;5.93;;;;;;;3.00;100.00;102679.25;5039101;28;20036;-71
2024/03/02 07:51:04;;;;;;;11.93;6.60;;;;;;;2.92;100.00;102654.19;5036356;28;20319;-66
2024/03/02 07:53:29;;;;;;;10.90;5.77;;;;;;;2.89;100.00;102641.13;5040352;28;20307;-68
2024/03/02 07:56:01;;;;;;;11.70;6.87;;;;;;;3.10;100.00;102684.94;5042151;28;20347;-66
2024/03/02 07:58:26;;;;;;;7.03;5.53;;;;;;;2.84;100.00;102640.47;5032307;28;20034;-67
2024/03/02 08:00:52;;;;;;;12.90;7.47;;;;;;;3.01;100.00;102673.03;5036287;28;20290;-66
2024/03/02 08:03:18;;;;;;;10.83;6.87;;;;;;;3.11;100.00;102684.88;5040830;28;20045;-66
2024/03/02 08:05:44;;;;;;;9.23;6.27;;;;;;;3.07;100.00;102679.81;5043193;28;20400;-67
2024/03/02 08:08:11;;;;;;;9.70;6.37;;;;;;;3.07;100.00;102682.44;5037957;28;20122;-65
2024/03/02 08:10:37;;;;;;;9.60;6.43;;;;;;;2.99;100.00;102680.16;5039013;28;20282;-67
2024/03/02 08:13:02;;;;;;;9.17;6.53;;;;;;;2.99;100.00;102680.16;5041720;28;20284;-67
2024/03/02 08:15:28;;;;;;;15.30;9.73;;;;;;;2.89;100.00;102665.69;5041599;28;20039;-66
2024/03/02 08:17:54;;;;;;;15.23;8.47;;;;;;;2.88;100.00;102671.00;5046879;28;20033;-69
2024/03/02 08:20:19;;;;;;;8.03;5.40;;;;;;;2.90;100.00;102671.81;5049085;28;20475;-64
2024/03/02 08:22:45;;;;;;;8.77;5.30;;;;;;;2.95;100.00;102668.06;5041728;28;20049;-68
2024/03/02 08:25:11;;;;;;;7.93;6.53;;;;;;;2.98;100.00;102669.69;5024425;28;20128;-66
2024/03/02 08:27:37;;;;;;;9.23;6.50;;;;;;;2.71;100.00;102619.97;5045892;28;20076;-68
2024/03/02 08:30:06;;;;;;;6.33;4.10;;;;;;;2.92;100.00;102672.59;5042202;28;20137;-67
2024/03/02 08:32:31;;;;;;;7.68;4.95;;;;;;;2.98;100.00;102685.50;5041962;28;20270;-67
2024/03/02 08:34:57;;;;;;;5.83;4.80;;;;;;;2.87;100.00;102671.91;5042106;28;20041;-65
2024/03/02 08:37:23;;;;;;;6.47;5.17;;;;;;;2.94;100.00;102683.91;5036782;28;20124;-67
2024/03/02 08:39:49;;;;;;;6.77;5.00;;;;;;;3.03;100.00;102694.88;5039476;28;20390;-67
2024/03/02 08:42:15;;;;;;;7.83;5.77;;;;;;;2.84;100.00;102656.28;5045393;28;20303;-67
2024/03/02 08:44:41;;;;;;;5.83;5.17;;;;;;;2.95;100.00;102667.22;5034996;28;20806;-68
2024/03/02 08:47:06;;;;;;;6.73;5.57;;;;;;;3.04;100.00;102674.69;5035223;28;20499;-66
2024/03/02 08:49:32;;;;;;;6.43;5.00;;;;;;;3.19;100.00;102688.97;5045930;28;20460;-68
2024/03/02 08:51:57;;;;;;;10.63;5.87;;;;;;;3.28;100.00;102678.00;5051026;28;20037;-67
2024/03/02 08:54:23;;;;;;;5.77;5.03;;;;;;;3.34;100.00;102694.38;5033100;28;20588;-66
2024/03/02 08:56:50;;;;;;;7.00;5.27;;;;;;;3.24;100.00;102676.44;5036022;28;20528;-66
2024/03/02 08:59:16;;;;;;;7.20;5.10;;;;;;;3.10;100.00;102666.50;5035791;28;20049;-69
2024/03/02 09:01:42;;;;;;;7.23;6.33;;;;;;;3.15;100.00;102680.31;5043505;28;20371;-66
2024/03/02 09:04:10;;;;;;;6.27;5.30;;;;;;;2.97;100.00;102657.47;5041171;28;20287;-65
2024/03/02 09:06:36;;;;;;;6.25;4.82;;;;;;;3.13;100.00;102686.59;5036697;28;20037;-67
2024/03/02 09:09:02;;;;;;;5.27;4.63;;;;;;;3.12;100.00;102685.72;5041245;28;20393;-67
2024/03/02 09:11:28;;;;;;;6.37;3.97;;;;;;;3.00;100.00;102667.84;5039863;28;20490;-67
2024/03/02 09:13:55;;;;;;;6.20;4.60;;;;;;;3.12;100.00;102693.63;5038412;28;20284;-71
2024/03/02 09:16:21;;;;;;;6.30;4.80;;;;;;;3.06;100.00;102672.84;5040576;28;20286;-68
2024/03/02 09:18:47;;;;;;;7.03;4.93;;;;;;;3.16;100.00;102673.28;5044268;28;20288;-70
2024/03/02 09:21:12;;;;;;;4.63;4.10;;;;;;;3.33;100.00;102689.19;5044877;28;20037;-68
2024/03/02 09:23:40;;;;;;;9.40;5.23;;;;;;;3.33;100.00;102690.03;5043609;28;20388;-68
2024/03/02 09:26:07;;;;;;;7.27;5.73;;;;;;;3.34;100.00;102688.28;5043119;28;20057;-67
2024/03/02 09:28:32;;;;;;;5.93;4.67;;;;;;;3.18;100.00;102653.88;5041683;28;20609;-68
2024/03/02 09:31:00;;;;;;;5.83;4.97;;;;;;;3.09;100.00;102625.31;5042697;28;20365;-67
2024/03/02 09:33:27;;;;;;;6.27;5.30;;;;;;;3.33;100.00;102655.81;5042161;28;20033;-68
2024/03/02 09:35:53;;;;;;;16.87;6.70;;;;;;;3.29;100.00;102669.19;5045800;28;20280;-68
2024/03/02 09:38:18;;;;;;;7.17;5.13;;;;;;;3.12;100.00;102640.97;5028807;28;20836;-66
2024/03/02 09:40:44;;;;;;;6.50;4.67;;;;;;;3.33;100.00;102676.88;5044343;28;20033;-66
2024/03/02 09:43:10;;;;;;;4.47;3.73;;;;;;;3.29;100.00;102685.84;5045327;28;20064;-68
2024/03/02 09:45:36;;;;;;;5.90;4.97;;;;;;;3.27;100.00;102676.31;5044065;28;20044;-67
2024/03/02 09:48:02;;;;;;;5.67;4.93;;;;;;;3.23;100.00;102685.28;5044023;28;20287;-68
2024/03/02 09:50:28;;;;;;;6.40;5.80;;;;;;;3.26;100.00;102693.03;5045911;28;20420;-68
2024/03/02 09:52:54;;;;;;;8.60;5.47;;;;;;;3.27;100.00;102677.16;5044221;28;20120;-66
2024/03/02 09:55:20;;;;;;;6.77;5.13;;;;;;;3.43;100.00;102683.44;5045162;28;20041;-68
2024/03/02 09:57:48;;;;;;;6.30;5.40;;;;;;;3.43;100.00;102667.63;5043096;28;20283;-66
2024/03/02 10:00:14;;;;;;;10.10;6.25;;;;;;;3.63;100.00;102679.03;5041752;28;20276;-66
2024/03/02 10:02:44;;;;;;;10.07;6.17;;;;;;;3.79;100.00;102681.81;5038774;28;20524;-69
2024/03/02 10:05:09;;;;;;;;;;;;;;;3.91;100.00;102683.88;5041834;28;20633;-69
2024/03/02 10:07:35;;;;;;;9.03;5.37;;;;;;;3.57;100.00;102637.19;5047614;28;20007;-67
2024/03/02 10:10:13;;;;;;;7.83;6.13;;;;;;;3.79;100.00;102687.09;5035501;28;20040;-69
2024/03/02 10:12:39;;;;;;;9.00;6.35;;;;;;;3.75;100.00;102673.19;5038385;28;20497;-70
2024/03/02 10:15:06;;;;;;;9.40;6.93;;;;;;;3.91;100.00;102674.19;5037658;28;20041;-67
2024/03/02 10:17:32;;;;;;;6.93;6.10;;;;;;;3.96;100.00;102677.44;5043917;28;20077;-65
2024/03/02 10:19:57;;;;;;;8.33;5.33;;;;;;;3.90;100.00;102676.91;5044740;28;20326;-65
2024/03/02 10:22:23;;;;;;;6.30;5.17;;;;;;;3.65;100.00;102635.03;5048538;28;20505;-65
2024/03/02 10:24:49;;;;;;;8.20;5.97;;;;;;;3.85;100.00;102678.91;5044451;28;20033;-67
2024/03/02 10:27:17;;;;;;;9.43;6.07;;;;;;;3.88;100.00;102689.28;5047835;28;20049;-65
2024/03/02 10:29:46;;;;;;;6.22;5.43;;;;;;;3.68;100.00;102655.97;5041861;28;20045;-68
2024/03/02 10:32:12;;;;;;;;;;;;;;;3.91;100.00;102683.88;5038943;28;20053;-70
2024/03/02 10:34:42;;;;;;;6.73;5.63;;;;;;;3.91;100.00;102676.81;5044776;28;20277;-63
2024/03/02 10:37:08;;;;;;;6.43;5.03;;;;;;;3.96;100.00;102677.44;5038341;28;20045;-66
2024/03/02 10:39:36;;;;;;;5.87;4.77;;;;;;;4.06;100.00;102677.03;5040090;28;20291;-68
2024/03/02 10:42:03;;;;;;;6.63;5.00;;;;;;;4.04;100.00;102671.78;5045558;28;20364;-68
2024/03/02 10:44:30;;;;;;;5.20;4.60;;;;;;;4.07;100.00;102676.09;5044545;28;20041;-67
2024/03/02 10:46:57;;;;;;;8.53;5.03;;;;;;;3.99;100.00;102666.75;5044667;28;20400;-66
2024/03/02 10:49:26;;;;;;;7.50;5.60;;;;;;;4.11;100.00;102680.28;5041612;28;20287;-67
2024/03/02 10:51:53;;;;;;;6.07;4.82;;;;;;;4.21;100.00;102681.53;5046155;28;20307;-68
2024/03/02 10:54:18;;;;;;;6.77;5.77;;;;;;;4.08;100.00;102670.75;5043953;28;20047;-68
2024/03/02 10:56:46;;;;;;;8.30;6.67;;;;;;;4.17;100.00;102675.56;5041880;28;20280;-65
2024/03/02 10:59:30;;;;;;;8.13;6.87;;;;;;;4.32;100.00;102689.78;5039996;28;20045;-67
2024/03/02 11:01:58;;;;;;;8.47;6.87;;;;;;;4.36;100.00;102683.44;5042962;28;20403;-67
2024/03/02 11:04:28;;;;;;;7.43;5.70;;;;;;;4.25;100.00;102662.00;5040152;28;20294;-67
2024/03/02 11:07:02;;;;;;;5.63;4.83;;;;;;;4.19;100.00;102664.94;5025241;28;20127;-66
2024/03/02 11:09:31;;;;;;;7.93;5.20;;;;;;;4.18;100.00;102669.38;5041894;28;20288;-66
2024/03/02 11:12:19;;;;;;;6.57;5.28;;;;;;;4.26;100.00;102676.91;5041956;28;20371;-69
2024/03/02 11:14:45;;;;;;;7.68;6.18;;;;;;;4.11;100.00;102653.94;5039444;28;20041;-67
2024/03/02 11:17:13;;;;;;;6.30;5.27;;;;;;;4.14;100.00;102659.03;5045092;28;20048;-67
2024/03/02 11:19:41;;;;;;;7.33;5.93;;;;;;;4.23;100.00;102682.31;5043855;28;20041;-66
2024/03/02 11:22:08;;;;;;;9.83;5.30;;;;;;;4.15;100.00;102668.66;5040727;28;20307;-66
2024/03/02 11:24:33;;;;;;;6.97;5.50;;;;;;;3.86;100.00;102612.94;5050395;28;20386;-67